Time;durP1;ratioP1;P1;durP2;ratioP2;P2;SDS_P1;SDS_P2;PMS_P1;PMS_P2;Temp;Humidity;BMP_temperature;BMP_pressure;BME280_temperature;BME280_humidity;BME280_pressure;Samples;Min_cycle;Max_cycle;Signal;HPM_P1;HPM_P2
2023/08/02 00:00:06;;;;;;;1.58;0.90;;;18.10;99.90;;;;;;4999797;28;20199;-72
2023/08/02 00:02:32;;;;;;;1.35;0.80;;;18.10;99.90;;;;;;4990697;28;20266;-71
2023/08/02 00:04:59;;;;;;;1.95;1.02;;;18.10;99.90;;;;;;5012296;28;20270;-71
2023/08/02 00:07:30;;;;;;;1.60;1.30;;;18.20;99.90;;;;;;5002817;28;20229;-72
2023/08/02 00:09:56;;;;;;;3.25;1.10;;;18.10;99.90;;;;;;4992651;28;20200;-71
2023/08/02 00:12:22;;;;;;;2.58;1.08;;;18.20;99.90;;;;;;4995102;28;20167;-71
2023/08/02 00:14:47;;;;;;;2.75;1.40;;;18.20;99.90;;;;;;4991460;28;20187;-71
2023/08/02 00:17:15;;;;;;;1.55;1.10;;;18.20;99.90;;;;;;4975718;28;20237;-69
2023/08/02 00:19:41;;;;;;;2.20;1.10;;;18.20;99.90;;;;;;4988459;28;20214;-71
2023/08/02 00:22:07;;;;;;;3.03;1.20;;;18.30;99.90;;;;;;4992073;28;20222;-71
2023/08/02 00:24:32;;;;;;;1.80;1.23;;;18.20;99.90;;;;;;4975666;28;20183;-72
2023/08/02 00:26:58;;;;;;;2.95;1.20;;;18.30;99.90;;;;;;4986094;28;20191;-71
2023/08/02 00:29:28;;;;;;;2.08;1.05;;;18.30;99.90;;;;;;4993447;28;20179;-71
2023/08/02 00:31:54;;;;;;;1.73;1.20;;;18.30;99.90;;;;;;4992979;28;20171;-70
2023/08/02 00:34:19;;;;;;;2.65;1.30;;;18.30;99.90;;;;;;4988763;28;20206;-71
2023/08/02 00:36:45;;;;;;;1.65;1.20;;;18.30;99.90;;;;;;4996478;28;20457;-71
2023/08/02 00:39:11;;;;;;;3.47;1.30;;;18.30;99.90;;;;;;5006371;28;20184;-71
2023/08/02 00:41:36;;;;;;;2.92;1.20;;;18.30;99.90;;;;;;4992617;28;20231;-71
2023/08/02 00:44:02;;;;;;;2.78;1.10;;;18.30;99.90;;;;;;4994001;28;20261;-71
2023/08/02 00:46:28;;;;;;;2.30;1.27;;;18.30;99.90;;;;;;4995077;28;20195;-72
2023/08/02 00:48:56;;;;;;;2.30;1.00;;;18.30;99.90;;;;;;4996927;28;20265;-72
2023/08/02 00:51:25;;;;;;;2.17;1.10;;;18.40;99.90;;;;;;5003494;28;20203;-72
2023/08/02 00:53:51;;;;;;;1.75;1.00;;;18.40;99.90;;;;;;4996840;28;20186;-72
2023/08/02 00:56:17;;;;;;;1.55;1.05;;;18.40;99.90;;;;;;5006163;28;20221;-70
2023/08/02 00:58:43;;;;;;;1.85;1.13;;;18.40;99.90;;;;;;5024104;28;20429;-72
2023/08/02 01:01:11;;;;;;;1.98;1.20;;;18.40;99.90;;;;;;5018177;28;20250;-72
2023/08/02 01:03:40;;;;;;;2.28;1.20;;;18.40;99.90;;;;;;4996079;28;20199;-73
2023/08/02 01:06:23;;;;;;;2.45;1.40;;;18.40;99.90;;;;;;5001890;28;20179;-70
2023/08/02 01:08:58;;;;;;;1.63;1.10;;;18.40;99.90;;;;;;5011640;28;20183;-71
2023/08/02 01:11:29;;;;;;;2.80;1.40;;;18.40;99.90;;;;;;4992998;28;20215;-72
2023/08/02 01:14:05;;;;;;;3.15;1.50;;;18.40;99.90;;;;;;4990070;28;20222;-70
2023/08/02 01:16:33;;;;;;;2.10;1.20;;;18.30;99.90;;;;;;4998503;28;20179;-72
2023/08/02 01:19:09;;;;;;;2.15;1.42;;;18.30;99.90;;;;;;4994894;28;20250;-69
2023/08/02 01:21:37;;;;;;;3.33;1.70;;;18.30;99.90;;;;;;4995217;28;20179;-71
2023/08/02 01:24:04;;;;;;;2.10;1.42;;;18.40;99.90;;;;;;5007227;28;20187;-71
2023/08/02 01:26:31;;;;;;;3.03;1.40;;;18.30;99.90;;;;;;4996904;28;20203;-71
2023/08/02 01:29:02;;;;;;;2.05;1.27;;;18.30;99.90;;;;;;4994899;28;20274;-70
2023/08/02 01:31:32;;;;;;;3.35;1.50;;;18.40;99.90;;;;;;4999803;28;20214;-71
2023/08/02 01:33:59;;;;;;;2.55;1.60;;;18.40;99.90;;;;;;5009631;28;20179;-70
2023/08/02 01:36:25;;;;;;;3.17;1.40;;;18.40;99.90;;;;;;5034014;28;20175;-71
2023/08/02 01:38:56;;;;;;;2.85;1.63;;;18.30;99.90;;;;;;5016300;28;20237;-67
2023/08/02 01:41:24;;;;;;;3.05;1.60;;;18.30;99.90;;;;;;4996903;28;20203;-70
2023/08/02 01:43:50;;;;;;;2.30;1.30;;;18.30;99.90;;;;;;5011669;28;20180;-71
2023/08/02 01:46:20;;;;;;;2.35;1.30;;;18.30;99.90;;;;;;4997567;28;20213;-72
2023/08/02 01:48:47;;;;;;;2.50;1.65;;;18.30;99.90;;;;;;4999443;28;20187;-72
2023/08/02 01:51:13;;;;;;;2.72;1.50;;;18.30;99.90;;;;;;4996842;28;20222;-71
2023/08/02 01:53:41;;;;;;;2.00;1.40;;;18.30;99.90;;;;;;4997182;28;20267;-71
2023/08/02 01:56:06;;;;;;;2.38;1.30;;;18.30;99.90;;;;;;4997848;28;20190;-71
2023/08/02 01:58:32;;;;;;;1.80;1.40;;;18.30;99.90;;;;;;4996992;28;20212;-71
2023/08/02 02:01:00;;;;;;;2.08;1.38;;;18.30;99.90;;;;;;4997843;28;20223;-71
2023/08/02 02:03:28;;;;;;;2.50;1.30;;;18.20;99.90;;;;;;4994474;28;20214;-71
2023/08/02 02:05:54;;;;;;;1.73;1.30;;;18.10;99.90;;;;;;4996662;28;20172;-72
2023/08/02 02:08:23;;;;;;;3.15;1.45;;;18.10;99.90;;;;;;4996865;28;20203;-70
2023/08/02 02:10:53;;;;;;;3.20;1.50;;;18.00;99.90;;;;;;4996493;28;20202;-71
2023/08/02 02:13:25;;;;;;;2.45;1.27;;;18.00;99.90;;;;;;4977804;28;20192;-72
2023/08/02 02:15:53;;;;;;;3.35;1.60;;;17.90;99.90;;;;;;4990953;28;20206;-72
2023/08/02 02:18:19;;;;;;;1.58;1.20;;;17.90;99.90;;;;;;4996931;28;20229;-72
2023/08/02 02:20:46;;;;;;;1.98;1.50;;;17.90;99.90;;;;;;5001184;28;20218;-72
2023/08/02 02:23:12;;;;;;;4.13;1.58;;;17.90;99.90;;;;;;4995008;28;20199;-71
2023/08/02 02:25:40;;;;;;;2.10;1.40;;;17.90;99.90;;;;;;5005753;28;20179;-70
2023/08/02 02:28:06;;;;;;;3.25;1.63;;;17.90;99.90;;;;;;4996477;28;20180;-71
2023/08/02 02:30:36;;;;;;;2.75;1.73;;;17.90;99.90;;;;;;4996595;28;20217;-71
2023/08/02 02:33:03;;;;;;;3.00;1.50;;;17.80;99.90;;;;;;4994308;28;20190;-72
2023/08/02 02:35:28;;;;;;;2.08;1.50;;;17.80;99.90;;;;;;4993381;28;20176;-73
2023/08/02 02:37:54;;;;;;;2.58;1.48;;;17.80;99.90;;;;;;4981914;28;20196;-70
2023/08/02 02:40:24;;;;;;;2.10;1.48;;;17.90;99.90;;;;;;4988610;28;20196;-72
2023/08/02 02:42:52;;;;;;;3.05;1.60;;;17.80;99.90;;;;;;4991631;28;20191;-72
2023/08/02 02:45:18;;;;;;;2.67;1.77;;;17.80;99.90;;;;;;5005250;28;20189;-72
2023/08/02 02:47:44;;;;;;;1.77;1.45;;;17.80;99.90;;;;;;4990408;28;20270;-72
2023/08/02 02:50:12;;;;;;;2.60;1.45;;;17.80;99.90;;;;;;4992469;28;20199;-68
2023/08/02 02:52:37;;;;;;;2.67;1.88;;;17.80;99.90;;;;;;5002050;28;20179;-71
2023/08/02 02:55:03;;;;;;;3.55;1.98;;;17.80;99.90;;;;;;4987453;28;20177;-72
2023/08/02 02:57:29;;;;;;;3.05;1.60;;;17.80;99.90;;;;;;4995257;28;20262;-72
2023/08/02 02:59:56;;;;;;;1.98;1.60;;;17.80;99.90;;;;;;5007584;28;20183;-72
2023/08/02 03:02:24;;;;;;;2.58;1.77;;;17.80;99.90;;;;;;4991829;28;20183;-72
2023/08/02 03:04:52;;;;;;;1.83;1.63;;;17.70;99.90;;;;;;4985518;28;20212;-72
2023/08/02 03:07:17;;;;;;;2.85;1.70;;;17.70;99.90;;;;;;5012113;28;20191;-72
2023/08/02 03:09:45;;;;;;;2.47;1.65;;;17.70;99.90;;;;;;4995601;28;20214;-72
2023/08/02 03:12:11;;;;;;;2.10;1.50;;;17.70;99.90;;;;;;4985752;28;20176;-71
2023/08/02 03:14:36;;;;;;;2.40;1.77;;;17.70;99.90;;;;;;4992112;28;20206;-70
2023/08/02 03:17:02;;;;;;;2.15;1.75;;;17.70;99.90;;;;;;4996187;28;20267;-71
2023/08/02 03:19:28;;;;;;;1.83;1.42;;;17.60;99.90;;;;;;4995792;28;20176;-72
2023/08/02 03:21:53;;;;;;;3.25;1.58;;;17.70;99.90;;;;;;4997134;28;20222;-71
2023/08/02 03:24:19;;;;;;;2.65;1.80;;;17.60;99.90;;;;;;5015271;28;20186;-72
2023/08/02 03:26:47;;;;;;;3.55;2.20;;;17.70;99.90;;;;;;4993536;28;20219;-71
2023/08/02 03:29:12;;;;;;;2.45;1.70;;;17.60;99.90;;;;;;4995447;28;20412;-71
2023/08/02 03:31:43;;;;;;;3.25;1.70;;;17.60;99.90;;;;;;4995337;28;20283;-72
2023/08/02 03:34:14;;;;;;;3.28;1.85;;;17.60;99.90;;;;;;4992305;28;20250;-70
2023/08/02 03:36:42;;;;;;;6.43;1.70;;;17.60;99.90;;;;;;4993277;28;20198;-70
2023/08/02 03:39:13;;;;;;;2.78;1.80;;;17.60;99.90;;;;;;4991750;28;20187;-71
2023/08/02 03:41:39;;;;;;;3.65;1.90;;;17.60;99.90;;;;;;4988029;28;20199;-71
2023/08/02 03:44:07;;;;;;;2.35;1.90;;;17.60;99.90;;;;;;4995925;28;20183;-71
2023/08/02 03:46:33;;;;;;;4.40;1.90;;;17.60;99.90;;;;;;5011155;28;20179;-72
2023/08/02 03:48:58;;;;;;;3.45;1.90;;;17.60;99.90;;;;;;5006140;28;20201;-71
2023/08/02 03:51:26;;;;;;;2.80;1.63;;;17.60;99.90;;;;;;4992212;28;20212;-67
2023/08/02 03:53:54;;;;;;;4.15;1.85;;;17.60;99.90;;;;;;4990788;28;20183;-72
2023/08/02 03:56:24;;;;;;;2.35;1.90;;;17.60;99.90;;;;;;4994981;28;20196;-72
2023/08/02 03:58:52;;;;;;;2.25;1.88;;;17.70;99.90;;;;;;4995619;28;20194;-72
2023/08/02 04:01:18;;;;;;;3.05;1.73;;;17.60;99.90;;;;;;4991624;28;20195;-72
2023/08/02 04:03:44;;;;;;;2.97;1.92;;;17.70;99.90;;;;;;4991738;28;20267;-72
2023/08/02 04:06:09;;;;;;;3.28;2.05;;;17.70;99.90;;;;;;4990779;28;20271;-72
2023/08/02 04:08:35;;;;;;;3.08;2.30;;;17.70;99.90;;;;;;4993615;28;20505;-72
2023/08/02 04:11:04;;;;;;;4.93;2.20;;;17.70;99.90;;;;;;4985868;28;20249;-72
2023/08/02 04:13:31;;;;;;;4.20;2.20;;;17.80;99.90;;;;;;4991674;28;20259;-72
2023/08/02 04:15:56;;;;;;;3.20;2.10;;;17.80;99.90;;;;;;4976091;28;20172;-71
2023/08/02 04:18:22;;;;;;;3.58;2.25;;;17.80;99.90;;;;;;4992064;28;20207;-69
2023/08/02 04:20:55;;;;;;;3.20;1.92;;;17.80;99.90;;;;;;4994512;28;20197;-69
2023/08/02 04:23:20;;;;;;;2.60;2.25;;;17.80;99.90;;;;;;4990613;28;20270;-70
2023/08/02 04:25:48;;;;;;;3.80;2.72;;;17.90;99.90;;;;;;5005633;28;20226;-71
2023/08/02 04:28:16;;;;;;;4.50;2.47;;;17.90;99.90;;;;;;4991012;28;20179;-68
2023/08/02 04:30:41;;;;;;;2.55;2.03;;;17.90;99.90;;;;;;4989660;28;20218;-71
2023/08/02 04:33:11;;;;;;;3.08;2.25;;;17.90;99.90;;;;;;4992470;28;20179;-71
2023/08/02 04:35:37;;;;;;;3.55;2.25;;;17.90;99.90;;;;;;5011000;28;20180;-70
2023/08/02 04:38:03;;;;;;;3.92;2.40;;;17.90;99.90;;;;;;5009775;28;20194;-70
2023/08/02 04:40:28;;;;;;;4.10;2.40;;;17.90;99.90;;;;;;4994351;28;20183;-70
2023/08/02 04:42:54;;;;;;;2.92;2.28;;;17.90;99.90;;;;;;4988689;28;20184;-70
2023/08/02 04:45:24;;;;;;;3.13;2.30;;;17.90;99.90;;;;;;4975288;28;20278;-70
2023/08/02 04:47:54;;;;;;;3.33;2.58;;;18.00;99.90;;;;;;5000418;28;20191;-70
2023/08/02 04:50:20;;;;;;;3.15;2.00;;;18.00;99.90;;;;;;4993006;28;20211;-70
2023/08/02 04:52:50;;;;;;;3.03;2.20;;;18.00;99.90;;;;;;4990841;28;20175;-67
2023/08/02 04:55:16;;;;;;;3.35;2.30;;;18.00;99.90;;;;;;4991411;28;20172;-70
2023/08/02 04:57:42;;;;;;;3.80;2.25;;;18.00;99.90;;;;;;5005730;28;20167;-70
2023/08/02 05:00:08;;;;;;;5.43;2.42;;;18.00;99.90;;;;;;4989643;28;20192;-70
2023/08/02 05:02:36;;;;;;;3.63;2.17;;;18.10;99.90;;;;;;4976019;28;20184;-70
2023/08/02 05:05:05;;;;;;;3.63;2.38;;;18.00;99.90;;;;;;4985748;28;20195;-70
2023/08/02 05:07:34;;;;;;;2.78;2.30;;;18.00;99.90;;;;;;4994262;28;20209;-68
2023/08/02 05:10:03;;;;;;;3.20;2.28;;;18.00;99.90;;;;;;4982555;28;20207;-70
2023/08/02 05:12:43;;;;;;;3.38;2.60;;;18.00;99.90;;;;;;5003770;28;20179;-70
2023/08/02 05:15:08;;;;;;;3.72;2.28;;;18.10;99.90;;;;;;4993456;28;20289;-71
2023/08/02 05:17:36;;;;;;;4.65;2.60;;;18.00;99.90;;;;;;4988870;28;20196;-71
2023/08/02 05:20:02;;;;;;;4.03;2.78;;;18.00;99.90;;;;;;5004826;28;20210;-71
2023/08/02 05:22:30;;;;;;;3.45;2.33;;;18.00;99.90;;;;;;4991475;28;20200;-69
2023/08/02 05:24:56;;;;;;;3.72;2.42;;;18.00;99.90;;;;;;4993987;28;20171;-70
2023/08/02 05:27:22;;;;;;;3.72;2.35;;;18.00;99.90;;;;;;4993241;28;20198;-70
2023/08/02 05:29:48;;;;;;;3.20;2.35;;;18.00;99.90;;;;;;5000688;28;20298;-69
2023/08/02 05:32:13;;;;;;;4.60;2.78;;;18.00;99.90;;;;;;4994501;28;20186;-71
2023/08/02 05:34:41;;;;;;;4.85;2.25;;;18.00;99.90;;;;;;4990976;28;20226;-70
2023/08/02 05:37:09;;;;;;;3.58;2.67;;;18.00;99.90;;;;;;4989220;28;20199;-71
2023/08/02 05:39:34;;;;;;;2.75;2.20;;;18.00;99.90;;;;;;4993880;28;20175;-71
2023/08/02 05:42:05;;;;;;;4.40;2.65;;;18.00;99.90;;;;;;4982818;28;20242;-71
2023/08/02 05:44:31;;;;;;;3.35;2.70;;;18.00;99.90;;;;;;4987174;28;20290;-69
2023/08/02 05:46:56;;;;;;;2.85;2.53;;;18.10;99.90;;;;;;4994486;28;20267;-70
2023/08/02 05:49:24;;;;;;;5.32;3.20;;;18.10;99.90;;;;;;4980844;28;20192;-70
2023/08/02 05:51:52;;;;;;;3.95;2.83;;;18.10;99.90;;;;;;4993146;28;20210;-68
2023/08/02 05:54:21;;;;;;;5.03;2.95;;;18.10;99.90;;;;;;4990874;28;20183;-71
2023/08/02 05:56:46;;;;;;;3.67;2.85;;;18.20;99.90;;;;;;4979453;28;20199;-72
2023/08/02 05:59:15;;;;;;;5.07;3.03;;;18.10;99.90;;;;;;4997453;28;20175;-70
2023/08/02 06:01:40;;;;;;;5.13;2.95;;;18.10;99.90;;;;;;4994069;28;20192;-71
2023/08/02 06:04:06;;;;;;;5.72;3.00;;;18.20;99.90;;;;;;4996929;28;20267;-69
2023/08/02 06:06:31;;;;;;;5.57;3.38;;;18.20;99.90;;;;;;5013790;28;20209;-71
2023/08/02 06:08:58;;;;;;;4.25;3.30;;;18.20;99.90;;;;;;5013550;28;20210;-70
2023/08/02 06:11:24;;;;;;;4.05;2.97;;;18.20;99.90;;;;;;5013442;28;20294;-70
2023/08/02 06:13:52;;;;;;;4.50;2.88;;;18.10;99.90;;;;;;5013573;28;20171;-70
2023/08/02 06:16:20;;;;;;;3.85;2.85;;;18.10;99.90;;;;;;5013841;28;20183;-71
2023/08/02 06:18:45;;;;;;;3.58;2.90;;;18.10;99.90;;;;;;5016871;28;20182;-70
2023/08/02 06:21:11;;;;;;;3.42;2.60;;;18.10;99.90;;;;;;4987570;28;20199;-70
2023/08/02 06:23:37;;;;;;;4.13;2.78;;;18.00;99.90;;;;;;4996502;28;20226;-68
2023/08/02 06:26:02;;;;;;;4.15;2.88;;;18.00;99.90;;;;;;4999892;28;20218;-69
2023/08/02 06:28:28;;;;;;;3.92;2.55;;;18.00;99.90;;;;;;4996577;28;20211;-68
2023/08/02 06:30:54;;;;;;;5.05;2.78;;;18.00;99.90;;;;;;5006580;28;20203;-69
2023/08/02 06:33:19;;;;;;;4.05;3.10;;;18.00;99.90;;;;;;5012637;28;20226;-69
2023/08/02 06:35:45;;;;;;;4.05;3.28;;;17.90;99.90;;;;;;4995244;28;20247;-70
2023/08/02 06:38:10;;;;;;;3.58;2.80;;;17.90;99.90;;;;;;4992895;28;20191;-70
2023/08/02 06:40:36;;;;;;;4.05;3.10;;;18.00;99.90;;;;;;4995597;28;20188;-70
2023/08/02 06:43:02;;;;;;;5.63;2.88;;;17.90;99.90;;;;;;4995429;28;20190;-70
2023/08/02 06:45:27;;;;;;;4.13;3.30;;;17.90;99.90;;;;;;5007854;28;20195;-71
2023/08/02 06:47:55;;;;;;;5.63;3.35;;;17.90;99.90;;;;;;4995473;28;20206;-70
2023/08/02 06:50:21;;;;;;;3.45;2.75;;;18.00;99.90;;;;;;4991228;28;20275;-69
2023/08/02 06:52:46;;;;;;;5.25;3.05;;;17.90;99.90;;;;;;4988335;28;20273;-69
2023/08/02 06:55:14;;;;;;;5.18;3.45;;;18.00;99.90;;;;;;4986327;28;20180;-70
2023/08/02 06:57:42;;;;;;;5.18;3.60;;;18.00;99.90;;;;;;4979129;28;20255;-71
2023/08/02 07:00:10;;;;;;;4.20;3.80;;;18.00;99.90;;;;;;5012137;28;20187;-70
2023/08/02 07:02:41;;;;;;;7.10;4.70;;;18.00;99.90;;;;;;4991635;28;20246;-70
2023/08/02 07:05:08;;;;;;;5.20;4.43;;;18.10;99.90;;;;;;4989387;28;20199;-71
2023/08/02 07:07:34;;;;;;;5.10;4.53;;;18.10;99.90;;;;;;5011780;28;20175;-71
2023/08/02 07:10:02;;;;;;;5.38;4.53;;;18.10;99.90;;;;;;4995618;28;20237;-70
2023/08/02 07:12:28;;;;;;;5.20;4.40;;;18.20;99.90;;;;;;4992569;28;20207;-71
2023/08/02 07:14:53;;;;;;;4.45;4.00;;;18.30;99.90;;;;;;5003527;28;20262;-69
2023/08/02 07:17:19;;;;;;;5.18;4.20;;;18.30;99.90;;;;;;5009779;28;20210;-68
2023/08/02 07:19:47;;;;;;;4.75;4.28;;;18.30;99.90;;;;;;4986441;28;20187;-69
2023/08/02 07:22:17;;;;;;;4.60;4.15;;;18.40;99.90;;;;;;4990320;28;20171;-69
2023/08/02 07:24:45;;;;;;;5.15;4.03;;;18.50;99.90;;;;;;4995312;28;20175;-69
2023/08/02 07:27:11;;;;;;;5.57;4.13;;;18.60;99.90;;;;;;4993901;28;20171;-69
2023/08/02 07:29:37;;;;;;;4.97;4.22;;;18.60;99.90;;;;;;4985770;28;20219;-67
2023/08/02 07:32:05;;;;;;;5.40;3.65;;;18.70;99.90;;;;;;4992554;28;20180;-70
2023/08/02 07:34:33;;;;;;;4.65;3.30;;;18.70;99.90;;;;;;4981629;28;20262;-70
2023/08/02 07:37:01;;;;;;;5.35;3.50;;;18.80;99.90;;;;;;4992725;28;20210;-69
2023/08/02 07:39:32;;;;;;;4.22;3.58;;;18.90;99.90;;;;;;4992157;28;20172;-70
2023/08/02 07:41:57;;;;;;;4.22;3.10;;;18.90;99.90;;;;;;4981163;28;20272;-69
2023/08/02 07:44:23;;;;;;;4.38;3.10;;;18.90;99.90;;;;;;4983534;28;20199;-69
2023/08/02 07:46:50;;;;;;;3.50;3.05;;;19.00;99.90;;;;;;4994888;28;20175;-68
2023/08/02 07:49:16;;;;;;;3.53;2.63;;;19.00;99.90;;;;;;4994975;28;20285;-69
2023/08/02 07:51:41;;;;;;;3.33;2.80;;;19.00;99.90;;;;;;4995429;28;20203;-70
2023/08/02 07:54:09;;;;;;;5.10;2.70;;;19.00;99.90;;;;;;4990986;28;20183;-71
2023/08/02 07:56:35;;;;;;;3.38;2.70;;;19.00;99.90;;;;;;4995028;28;20290;-70
2023/08/02 07:59:03;;;;;;;3.03;2.55;;;19.10;99.90;;;;;;4994678;28;20274;-71
2023/08/02 08:01:31;;;;;;;2.70;2.17;;;19.10;99.90;;;;;;4986623;28;20215;-70
2023/08/02 08:03:58;;;;;;;3.50;2.75;;;19.20;99.90;;;;;;4981335;28;20178;-70
2023/08/02 08:06:26;;;;;;;2.58;2.30;;;19.20;99.90;;;;;;4995322;28;20183;-70
2023/08/02 08:08:51;;;;;;;2.80;2.30;;;19.30;99.90;;;;;;4987061;28;20200;-71
2023/08/02 08:11:22;;;;;;;2.50;2.17;;;19.30;99.90;;;;;;5001456;28;20200;-72
2023/08/02 08:13:51;;;;;;;2.08;1.88;;;19.40;99.90;;;;;;4997403;28;20179;-70
2023/08/02 08:16:17;;;;;;;2.55;1.80;;;19.40;99.90;;;;;;4994945;28;20171;-69
2023/08/02 08:18:43;;;;;;;2.28;1.83;;;19.50;99.90;;;;;;4995218;28;20174;-71
2023/08/02 08:21:10;;;;;;;2.35;1.80;;;19.60;99.90;;;;;;4994928;28;20284;-71
2023/08/02 08:23:36;;;;;;;1.90;1.50;;;19.60;99.90;;;;;;4994983;28;20183;-71
2023/08/02 08:26:04;;;;;;;1.90;1.60;;;19.70;99.90;;;;;;4994829;28;20175;-71
2023/08/02 08:28:32;;;;;;;2.42;1.90;;;19.70;99.90;;;;;;4994748;28;20187;-71
2023/08/02 08:30:59;;;;;;;1.67;1.52;;;19.80;99.90;;;;;;4995067;28;20214;-70
2023/08/02 08:33:27;;;;;;;1.85;1.42;;;19.90;99.90;;;;;;4994832;28;20201;-71
2023/08/02 08:35:52;;;;;;;1.92;1.40;;;19.90;99.90;;;;;;4991547;28;20172;-70
2023/08/02 08:38:18;;;;;;;2.53;1.20;;;19.90;99.90;;;;;;4975671;28;20291;-72
2023/08/02 08:40:52;;;;;;;1.83;1.25;;;20.00;99.90;;;;;;4992057;28;20446;-71
2023/08/02 08:43:28;;;;;;;1.40;0.90;;;20.00;99.90;;;;;;5014533;28;20253;-70
2023/08/02 08:45:54;;;;;;;1.00;0.88;;;20.00;99.90;;;;;;4978283;28;20201;-71
2023/08/02 08:48:22;;;;;;;1.33;0.90;;;20.00;99.90;;;;;;4994823;28;20187;-71
2023/08/02 08:50:49;;;;;;;1.00;0.90;;;20.00;99.90;;;;;;4994497;28;20226;-70
2023/08/02 08:53:29;;;;;;;1.15;1.00;;;20.00;99.90;;;;;;4994910;28;20175;-69
2023/08/02 08:55:55;;;;;;;1.13;1.00;;;19.90;99.90;;;;;;4994612;28;20186;-69
2023/08/02 08:58:21;;;;;;;1.15;0.80;;;19.90;99.90;;;;;;4992077;28;20171;-70
2023/08/02 09:00:47;;;;;;;0.98;0.88;;;19.90;99.90;;;;;;5007760;28;20202;-69
2023/08/02 09:03:15;;;;;;;0.82;0.73;;;19.80;99.90;;;;;;4993131;28;20206;-71
2023/08/02 09:05:41;;;;;;;1.27;0.80;;;19.80;99.90;;;;;;4993066;28;20298;-70
2023/08/02 09:08:10;;;;;;;0.85;0.65;;;19.70;99.90;;;;;;4994981;28;20215;-70
2023/08/02 09:10:36;;;;;;;0.68;0.60;;;19.70;99.90;;;;;;4990519;28;20471;-67
2023/08/02 09:13:02;;;;;;;0.90;0.77;;;19.60;99.90;;;;;;4993927;28;20213;-70
2023/08/02 09:15:32;;;;;;;1.20;0.70;;;19.50;99.90;;;;;;5007762;28;20191;-70
2023/08/02 09:17:59;;;;;;;2.03;0.70;;;19.40;99.90;;;;;;4996550;28;20179;-68
2023/08/02 09:20:29;;;;;;;1.25;0.80;;;19.30;99.90;;;;;;4988907;28;20172;-65
2023/08/02 09:22:57;;;;;;;0.88;0.70;;;19.20;99.90;;;;;;5003543;28;20216;-69
2023/08/02 09:25:29;;;;;;;0.95;0.80;;;19.10;99.90;;;;;;4995681;28;20171;-70
2023/08/02 09:27:58;;;;;;;1.33;0.85;;;19.10;99.90;;;;;;5010220;28;20176;-70
2023/08/02 09:30:27;;;;;;;1.40;0.77;;;19.00;99.90;;;;;;5013864;28;20199;-71
2023/08/02 09:33:04;;;;;;;2.25;0.80;;;19.00;99.90;;;;;;5009725;28;20164;-68
2023/08/02 09:35:53;;;;;;;1.80;0.90;;;19.00;99.90;;;;;;4993741;28;20347;-71
2023/08/02 09:38:21;;;;;;;0.73;0.73;;;19.00;99.90;;;;;;4989089;28;20183;-71
2023/08/02 09:40:49;;;;;;;1.10;0.90;;;19.00;99.90;;;;;;4995433;28;20188;-70
2023/08/02 09:43:18;;;;;;;1.08;0.80;;;19.10;99.90;;;;;;5015626;28;20233;-70
2023/08/02 09:45:44;;;;;;;1.83;1.00;;;19.20;99.90;;;;;;5004449;28;20174;-70
2023/08/02 09:48:12;;;;;;;0.95;0.70;;;19.20;99.90;;;;;;5001149;28;20194;-71
2023/08/02 09:51:03;;;;;;;1.35;0.85;;;19.40;99.90;;;;;;5017196;28;20226;-71
2023/08/02 09:53:28;;;;;;;1.30;0.60;;;19.50;99.90;;;;;;4999713;28;20206;-70
2023/08/02 09:55:58;;;;;;;0.98;0.80;;;19.60;99.90;;;;;;5009396;28;20232;-69
2023/08/02 09:58:25;;;;;;;1.05;0.95;;;19.80;99.90;;;;;;4996833;28;20183;-70
2023/08/02 10:00:51;;;;;;;1.80;0.70;;;19.90;99.90;;;;;;5017006;28;20183;-69
2023/08/02 10:03:23;;;;;;;0.70;0.70;;;20.10;99.90;;;;;;4996843;28;20203;-70
2023/08/02 10:05:49;;;;;;;0.90;0.70;;;20.20;99.90;;;;;;4995057;28;20191;-70
2023/08/02 10:08:15;;;;;;;1.00;0.80;;;20.40;99.90;;;;;;4997196;28;20199;-69
2023/08/02 10:10:44;;;;;;;1.58;0.85;;;20.40;99.90;;;;;;4993394;28;20243;-70
2023/08/02 10:13:32;;;;;;;2.22;0.80;;;20.60;99.90;;;;;;4996860;28;20262;-69
2023/08/02 10:15:58;;;;;;;0.68;0.65;;;20.70;99.90;;;;;;4985975;28;20198;-70
2023/08/02 10:18:24;;;;;;;0.85;0.70;;;20.90;99.90;;;;;;5007593;28;20274;-70
2023/08/02 10:20:51;;;;;;;0.80;0.70;;;21.00;99.90;;;;;;4989393;28;20210;-72
2023/08/02 10:23:17;;;;;;;1.67;1.10;;;21.10;99.90;;;;;;4991465;28;20171;-71
2023/08/02 10:25:47;;;;;;;1.48;0.98;;;21.20;99.90;;;;;;4994870;28;20183;-72
2023/08/02 10:28:13;;;;;;;1.00;0.90;;;21.30;99.90;;;;;;4995737;28;20183;-70
2023/08/02 10:30:42;;;;;;;0.80;0.60;;;21.30;99.90;;;;;;4995808;28;20207;-72
2023/08/02 10:33:15;;;;;;;0.90;0.70;;;21.40;99.90;;;;;;4996402;28;20234;-71
2023/08/02 10:36:06;;;;;;;1.00;0.60;;;21.50;99.90;;;;;;4994022;28;20270;-72
2023/08/02 10:38:47;;;;;;;0.80;0.57;;;21.60;99.90;;;;;;5016510;28;20174;-72
2023/08/02 10:41:13;;;;;;;1.10;0.80;;;21.70;99.90;;;;;;5005553;28;20423;-71
2023/08/02 10:44:08;;;;;;;0.70;0.70;;;21.70;99.90;;;;;;4995749;28;20171;-71
2023/08/02 10:46:34;;;;;;;0.50;0.50;;;21.80;99.90;;;;;;5017194;28;20210;-70
2023/08/02 10:49:09;;;;;;;0.60;0.60;;;21.90;99.90;;;;;;4994850;28;20195;-71
2023/08/02 10:51:37;;;;;;;0.85;0.60;;;22.00;99.90;;;;;;4993430;28;20217;-71
2023/08/02 10:54:19;;;;;;;0.93;0.60;;;22.20;99.90;;;;;;4992642;28;20191;-71
2023/08/02 10:57:04;;;;;;;2.97;1.00;;;22.30;99.90;;;;;;4998183;28;20183;-70
2023/08/02 10:59:30;;;;;;;1.15;0.90;;;22.50;99.90;;;;;;4995113;28;20235;-72
2023/08/02 11:02:09;;;;;;;0.82;0.73;;;22.60;99.90;;;;;;4996305;28;20207;-71
2023/08/02 11:04:37;;;;;;;0.80;0.60;;;22.70;99.90;;;;;;4996454;28;20199;-70
2023/08/02 11:07:12;;;;;;;1.52;0.90;;;22.80;99.90;;;;;;5012516;28;20178;-71
2023/08/02 11:09:41;;;;;;;0.73;0.68;;;22.90;99.90;;;;;;5006692;28;20171;-71
2023/08/02 11:12:20;;;;;;;1.70;0.50;;;23.00;99.90;;;;;;4996154;28;20207;-71
2023/08/02 11:14:56;;;;;;;0.63;0.30;;;23.30;99.90;;;;;;4992940;28;20395;-72
2023/08/02 11:17:25;;;;;;;0.20;0.20;;;23.50;99.90;;;;;;5004315;28;20249;-71
2023/08/02 11:19:54;;;;;;;0.20;0.10;;;23.70;99.90;;;;;;4996345;28;20222;-70
2023/08/02 11:22:20;;;;;;;0.10;0.10;;;24.00;99.90;;;;;;4992494;28;20180;-71
2023/08/02 11:24:50;;;;;;;0.10;0.10;;;24.20;99.90;;;;;;4976231;28;20287;-71
2023/08/02 11:27:24;;;;;;;0.08;0.08;;;24.30;99.90;;;;;;4976295;28;20199;-71
2023/08/02 11:30:07;;;;;;;0.50;0.30;;;24.40;99.90;;;;;;4976888;28;20180;-70
2023/08/02 11:32:33;;;;;;;0.20;0.20;;;24.40;99.90;;;;;;4995293;28;20179;-71
2023/08/02 11:35:00;;;;;;;0.20;0.10;;;24.40;99.90;;;;;;4995700;28;20171;-70
2023/08/02 11:37:27;;;;;;;0.40;0.40;;;24.40;99.90;;;;;;4995678;28;20195;-70
2023/08/02 11:39:57;;;;;;;1.15;0.30;;;24.50;99.90;;;;;;4994961;28;20168;-72
2023/08/02 11:42:24;;;;;;;0.17;0.17;;;24.50;99.90;;;;;;4995383;28;20195;-71
2023/08/02 11:44:52;;;;;;;0.77;0.30;;;24.60;99.90;;;;;;4994224;28;20171;-71
2023/08/02 11:47:17;;;;;;;0.50;0.20;;;24.60;99.90;;;;;;4995580;28;20265;-67
2023/08/02 11:49:56;;;;;;;0.40;0.20;;;24.70;99.90;;;;;;4981770;28;20247;-71
2023/08/02 11:52:29;;;;;;;0.22;0.20;;;24.70;99.90;;;;;;4995965;28;20178;-70
2023/08/02 11:54:56;;;;;;;0.88;0.30;;;24.80;99.90;;;;;;4995483;28;20163;-72
2023/08/02 11:57:23;;;;;;;0.20;0.20;;;24.90;99.90;;;;;;4995569;28;20186;-71
2023/08/02 11:59:50;;;;;;;1.23;0.43;;;24.90;99.90;;;;;;4994029;28;20172;-71
2023/08/02 12:02:29;;;;;;;0.20;0.20;;;25.00;99.90;;;;;;4975675;28;20199;-72
2023/08/02 12:04:55;;;;;;;0.40;0.38;;;25.00;99.90;;;;;;4981919;28;20172;-70
2023/08/02 12:07:29;;;;;;;0.22;0.22;;;25.00;99.90;;;;;;4980958;28;20266;-72
2023/08/02 12:10:06;;;;;;;0.47;0.32;;;25.00;99.90;;;;;;4985527;28;20172;-72
2023/08/02 12:12:33;;;;;;;0.43;0.40;;;25.00;99.90;;;;;;4993357;28;20198;-71
2023/08/02 12:15:08;;;;;;;0.60;0.45;;;25.00;99.90;;;;;;4992784;28;20286;-72
2023/08/02 12:17:33;;;;;;;0.47;0.43;;;25.00;99.90;;;;;;4983851;28;20159;-71
2023/08/02 12:20:02;;;;;;;0.60;0.60;;;25.00;99.90;;;;;;4996275;28;20171;-72
2023/08/02 12:22:27;;;;;;;0.63;0.52;;;24.90;99.90;;;;;;5000960;28;20275;-72
2023/08/02 12:25:04;;;;;;;0.85;0.60;;;25.00;99.90;;;;;;4999130;28;20271;-73
2023/08/02 12:27:30;;;;;;;1.15;0.55;;;25.10;99.90;;;;;;5004479;28;20199;-73
2023/08/02 12:30:15;;;;;;;0.55;0.47;;;25.20;99.90;;;;;;5005466;28;20398;-73
2023/08/02 12:32:43;;;;;;;1.20;0.70;;;25.20;99.90;;;;;;4978991;28;20163;-73
2023/08/02 12:35:13;;;;;;;1.10;0.70;;;25.30;99.90;;;;;;4991789;28;20183;-73
2023/08/02 12:37:39;;;;;;;0.90;0.60;;;25.30;99.90;;;;;;4992543;28;20175;-73
2023/08/02 12:40:10;;;;;;;1.20;0.70;;;25.30;99.90;;;;;;5010385;28;20257;-72
2023/08/02 12:42:35;;;;;;;0.65;0.60;;;25.40;99.90;;;;;;4998060;28;20180;-72
2023/08/02 12:45:01;;;;;;;1.00;0.70;;;25.40;99.90;;;;;;5005294;28;20182;-71
2023/08/02 12:47:29;;;;;;;1.33;0.80;;;25.50;99.90;;;;;;5025759;28;20207;-72
2023/08/02 12:49:57;;;;;;;0.70;0.60;;;25.50;99.90;;;;;;4990523;28;20204;-72
2023/08/02 12:52:22;;;;;;;0.70;0.68;;;25.60;99.90;;;;;;4980240;28;20182;-70